Time,TemperatureF,DewpointF,PressureIn,WindDirection,WindDirectionDegrees,WindSpeedMPH,WindSpeedGustMPH,Humidity,HourlyPrecipIn,Conditions,Clouds,dailyrainin,SoftwareType,DateUTC
2013-07-02 00:14:00,57.2,55.5,29.67,WSW,247,4.2,-999.0,94,-99.99,,,0.00,Acu-Link.com,2013-07-02 07:14:00,
2013-07-02 00:30:00,57.7,56.0,29.67,West,270,2.2,-999.0,94,-99.99,,,0.00,Acu-Link.com,2013-07-02 07:30:00,
2013-07-02 00:45:00,58.1,56.1,29.67,ENE,67,4.7,-999.0,93,-99.99,,,0.00,Acu-Link.com,2013-07-02 07:45:00,
2013-07-02 01:00:00,58.3,56.3,29.67,NNE,22,2.2,-999.0,93,-99.99,,,0.00,Acu-Link.com,2013-07-02 08:00:00,
2013-07-02 01:17:00,58.3,56.3,29.67,South,180,1.7,-999.0,93,-99.99,,,0.00,Acu-Link.com,2013-07-02 08:17:00,
2013-07-02 01:32:00,58.3,56.3,29.66,WNW,292,3.7,-999.0,93,-99.99,,,0.00,Acu-Link.com,2013-07-02 08:32:00,
2013-07-02 01:48:00,58.1,56.1,29.66,East,90,1.1,-999.0,93,-99.99,,,0.00,Acu-Link.com,2013-07-02 08:48:00,
2013-07-02 02:03:00,58.1,56.1,29.67,ENE,67,5.3,-999.0,93,-99.99,,,0.00,Acu-Link.com,2013-07-02 09:03:00,
2013-07-02 02:18:00,57.2,56.1,29.66,NNW,337,4.7,-999.0,96,-99.99,,,0.00,Acu-Link.com,2013-07-02 09:18:00,
2013-07-02 02:33:00,56.8,56.0,29.65,ENE,67,1.1,-999.0,97,-99.99,,,0.00,Acu-Link.com,2013-07-02 09:33:00,
2013-07-02 02:49:00,57.4,56.3,29.66,NNW,337,8.3,-999.0,96,-99.99,,,0.00,Acu-Link.com,2013-07-02 09:49:00,
2013-07-02 03:04:00,57.0,56.2,29.65,WSW,247,4.7,-999.0,97,-99.99,,,0.00,Acu-Link.com,2013-07-02 10:04:00,
2013-07-02 03:19:00,56.8,56.2,29.65,NW,315,6.3,-999.0,98,-99.99,,,0.00,Acu-Link.com,2013-07-02 10:19:00,
2013-07-02 03:34:00,56.8,56.2,29.66,NNW,337,4.7,-999.0,98,-99.99,,,0.00,Acu-Link.com,2013-07-02 10:34:00,
2013-07-02 03:50:00,56.7,56.4,29.66,West,270,6.8,-999.0,99,-99.99,,,0.00,Acu-Link.com,2013-07-02 10:50:00,
2013-07-02 04:05:00,56.7,56.4,29.66,NNW,337,5.8,-999.0,99,-99.99,,,0.00,Acu-Link.com,2013-07-02 11:05:00,
2013-07-02 04:20:00,56.8,56.5,29.66,North,0,8.3,-999.0,99,-99.99,,,0.00,Acu-Link.com,2013-07-02 11:20:00,
2013-07-02 04:36:00,56.8,56.5,29.67,West,270,4.7,-999.0,99,-99.99,,,0.00,Acu-Link.com,2013-07-02 11:36:00,
2013-07-02 04:51:00,57.0,56.7,29.66,SSE,157,2.2,-999.0,99,-99.99,,,0.00,Acu-Link.com,2013-07-02 11:51:00,
2013-07-02 05:06:00,57.2,56.9,29.66,NW,315,7.3,-999.0,99,-99.99,,,0.00,Acu-Link.com,2013-07-02 12:06:00,
2013-07-02 05:21:00,57.4,56.8,29.67,WSW,247,4.7,-999.0,98,-99.99,,,0.00,Acu-Link.com,2013-07-02 12:21:00,
2013-07-02 05:36:00,57.6,56.8,29.67,NNW,337,4.7,-999.0,97,-99.99,,,0.00,Acu-Link.com,2013-07-02 12:36:00,
2013-07-02 05:52:00,57.6,56.8,29.67,ENE,67,1.7,-999.0,97,-99.99,,,0.00,Acu-Link.com,2013-07-02 12:52:00,
2013-07-02 06:07:00,57.6,56.8,29.66,NNW,337,2.7,-999.0,97,-99.99,,,0.00,Acu-Link.com,2013-07-02 13:07:00,
2013-07-02 06:22:00,57.7,56.9,29.68,North,0,2.2,-999.0,97,-99.99,,,0.00,Acu-Link.com,2013-07-02 13:22:00,
2013-07-02 06:37:00,57.7,56.9,29.68,East,90,3.2,-999.0,97,-99.99,,,0.00,Acu-Link.com,2013-07-02 13:37:00,
2013-07-02 06:53:00,57.7,56.9,29.69,NW,315,5.3,-999.0,97,-99.99,,,0.00,Acu-Link.com,2013-07-02 13:53:00,
2013-07-02 07:08:00,57.9,57.1,29.68,SSE,157,5.3,-999.0,97,-99.99,,,0.00,Acu-Link.com,2013-07-02 14:08:00,
2013-07-02 07:23:00,58.5,57.4,29.69,NW,315,5.8,-999.0,96,-99.99,,,0.00,Acu-Link.com,2013-07-02 14:23:00,
2013-07-02 07:38:00,60.3,57.7,29.70,NNW,337,4.7,-999.0,91,-99.99,,,0.00,Acu-Link.com,2013-07-02 14:38:00,
2013-07-02 07:53:00,60.3,57.4,29.70,North,0,7.8,-999.0,90,-99.99,,,0.00,Acu-Link.com,2013-07-02 14:53:00,
2013-07-02 08:08:00,60.1,57.5,29.71,WNW,292,7.8,-999.0,91,-99.99,,,0.00,Acu-Link.com,2013-07-02 15:08:00,
2013-07-02 08:24:00,60.1,57.5,29.73,WNW,292,5.3,-999.0,91,-99.99,,,0.00,Acu-Link.com,2013-07-02 15:24:00,
2013-07-02 08:39:00,61.5,57.3,29.72,West,270,4.2,-999.0,86,-99.99,,,0.00,Acu-Link.com,2013-07-02 15:39:00,
2013-07-02 08:54:00,62.2,57.3,29.73,West,270,4.7,-999.0,84,-99.99,,,0.00,Acu-Link.com,2013-07-02 15:54:00,
2013-07-02 09:09:00,63.7,57.4,29.73,North,0,5.3,-999.0,80,-99.99,,,0.00,Acu-Link.com,2013-07-02 16:09:00,
2013-07-02 09:25:00,63.3,57.4,29.73,NW,315,6.8,-999.0,81,-99.99,,,0.00,Acu-Link.com,2013-07-02 16:25:00,
2013-07-02 09:40:00,63.7,57.8,29.73,NNW,337,4.7,-999.0,81,-99.99,,,0.00,Acu-Link.com,2013-07-02 16:40:00,
2013-07-02 09:55:00,64.0,58.0,29.73,West,270,4.7,-999.0,81,-99.99,,,0.00,Acu-Link.com,2013-07-02 16:55:00,
2013-07-02 10:10:00,64.8,58.5,29.73,NNE,22,7.3,-999.0,80,-99.99,,,0.00,Acu-Link.com,2013-07-02 17:10:00,
2013-07-02 10:25:00,65.1,58.4,29.73,NW,315,6.8,-999.0,79,-99.99,,,0.00,Acu-Link.com,2013-07-02 17:25:00,
2013-07-02 10:40:00,66.4,59.0,29.72,WNW,292,4.2,-999.0,77,-99.99,,,0.00,Acu-Link.com,2013-07-02 17:40:00,
2013-07-02 10:56:00,68.0,59.0,29.72,West,270,4.2,-999.0,73,-99.99,,,0.00,Acu-Link.com,2013-07-02 17:56:00,
2013-07-02 11:11:00,69.3,59.1,29.72,West,270,7.8,-999.0,70,-99.99,,,0.00,Acu-Link.com,2013-07-02 18:11:00,
2013-07-02 11:26:00,70.5,59.4,29.72,WNW,292,5.3,-999.0,68,-99.99,,,0.00,Acu-Link.com,2013-07-02 18:26:00,
2013-07-02 11:41:00,71.8,59.8,29.71,East,90,1.7,-999.0,66,-99.99,,,0.00,Acu-Link.com,2013-07-02 18:41:00,
2013-07-02 11:57:00,71.2,59.2,29.72,North,0,6.3,-999.0,66,-99.99,,,0.00,Acu-Link.com,2013-07-02 18:57:00,
2013-07-02 12:12:00,71.4,59.4,29.71,West,270,6.8,-999.0,66,-99.99,,,0.00,Acu-Link.com,2013-07-02 19:12:00,
2013-07-02 12:27:00,71.1,59.2,29.71,SW,225,7.8,-999.0,66,-99.99,,,0.00,Acu-Link.com,2013-07-02 19:27:00,
2013-07-02 12:42:00,70.9,59.4,29.72,SW,225,8.9,-999.0,67,-99.99,,,0.00,Acu-Link.com,2013-07-02 19:42:00,
2013-07-02 12:57:00,70.5,59.0,29.72,WNW,292,5.3,-999.0,67,-99.99,,,0.00,Acu-Link.com,2013-07-02 19:57:00,
2013-07-02 13:13:00,70.3,58.8,29.72,ESE,112,6.3,-999.0,67,-99.99,,,0.00,Acu-Link.com,2013-07-02 20:13:00,
2013-07-02 13:28:00,71.4,59.0,29.71,WNW,292,4.7,-999.0,65,-99.99,,,0.00,Acu-Link.com,2013-07-02 20:28:00,
2013-07-02 13:43:00,73.4,59.1,29.71,WNW,292,5.3,-999.0,61,-99.99,,,0.00,Acu-Link.com,2013-07-02 20:43:00,
2013-07-02 13:58:00,73.9,59.1,29.71,NNW,337,8.9,-999.0,60,-99.99,,,0.00,Acu-Link.com,2013-07-02 20:58:00,
2013-07-02 14:13:00,75.2,58.9,29.70,NNW,337,3.2,-999.0,57,-99.99,,,0.00,Acu-Link.com,2013-07-02 21:13:00,
2013-07-02 14:28:00,75.7,58.9,29.70,ESE,112,5.3,-999.0,56,-99.99,,,0.00,Acu-Link.com,2013-07-02 21:28:00,
2013-07-02 14:44:00,71.6,58.8,29.71,West,270,11.9,-999.0,64,-99.99,,,0.00,Acu-Link.com,2013-07-02 21:44:00,
2013-07-02 14:59:00,70.7,58.8,29.70,NNW,337,6.3,-999.0,66,-99.99,,,0.00,Acu-Link.com,2013-07-02 21:59:00,
2013-07-02 15:14:00,70.2,58.7,29.70,NW,315,9.4,-999.0,67,-99.99,,,0.00,Acu-Link.com,2013-07-02 22:14:00,
2013-07-02 15:29:00,68.5,58.3,29.71,NNE,22,8.9,-999.0,70,-99.99,,,0.00,Acu-Link.com,2013-07-02 22:29:00,
2013-07-02 15:45:00,68.7,58.5,29.70,NNW,337,7.8,-999.0,70,-99.99,,,0.00,Acu-Link.com,2013-07-02 22:45:00,
2013-07-02 16:00:00,67.6,57.9,29.70,ESE,112,11.4,-999.0,71,-99.99,,,0.00,Acu-Link.com,2013-07-02 23:00:00,
2013-07-02 16:15:00,66.6,58.0,29.70,West,270,9.9,-999.0,74,-99.99,,,0.00,Acu-Link.com,2013-07-02 23:15:00,
2013-07-02 16:30:00,65.1,57.3,29.71,North,0,7.8,-999.0,76,-99.99,,,0.00,Acu-Link.com,2013-07-02 23:30:00,
2013-07-02 16:46:00,63.7,57.1,29.71,East,90,9.9,-999.0,79,-99.99,,,0.00,Acu-Link.com,2013-07-02 23:46:00,
2013-07-02 17:01:00,63.5,56.9,29.71,NNW,337,10.9,-999.0,79,-99.99,,,0.00,Acu-Link.com,2013-07-03 00:01:00,
2013-07-02 17:16:00,63.1,56.5,29.71,NE,45,4.2,-999.0,79,-99.99,,,0.00,Acu-Link.com,2013-07-03 00:16:00,
2013-07-02 17:31:00,62.2,56.6,29.72,SW,225,3.7,-999.0,82,-99.99,,,0.00,Acu-Link.com,2013-07-03 00:31:00,
2013-07-02 17:47:00,61.9,56.3,29.72,South,180,2.2,-999.0,82,-99.99,,,0.00,Acu-Link.com,2013-07-03 00:47:00,
2013-07-02 18:02:00,62.6,56.3,29.72,North,0,2.7,-999.0,80,-99.99,,,0.00,Acu-Link.com,2013-07-03 01:02:00,
2013-07-02 18:17:00,62.4,56.5,29.72,WNW,292,3.2,-999.0,81,-99.99,,,0.00,Acu-Link.com,2013-07-03 01:17:00,
2013-07-02 18:32:00,61.7,56.8,29.72,NNE,22,3.7,-999.0,84,-99.99,,,0.00,Acu-Link.com,2013-07-03 01:32:00,
2013-07-02 18:47:00,61.2,56.7,29.72,SW,225,5.8,-999.0,85,-99.99,,,0.00,Acu-Link.com,2013-07-03 01:47:00,
2013-07-02 19:02:00,61.3,56.7,29.71,ESE,112,2.7,-999.0,85,-99.99,,,0.00,Acu-Link.com,2013-07-03 02:02:00,
2013-07-02 19:18:00,62.4,57.2,29.72,WSW,247,2.7,-999.0,83,-99.99,,,0.00,Acu-Link.com,2013-07-03 02:18:00,
2013-07-02 19:33:00,61.7,56.8,29.73,NNW,337,0.0,-999.0,84,-99.99,,,0.00,Acu-Link.com,2013-07-03 02:33:00,
2013-07-02 19:48:00,59.7,56.8,29.73,West,270,6.8,-999.0,90,-99.99,,,0.00,Acu-Link.com,2013-07-03 02:48:00,
2013-07-02 20:03:00,59.0,56.7,29.73,West,270,8.3,-999.0,92,-99.99,,,0.00,Acu-Link.com,2013-07-03 03:03:00,
2013-07-02 20:18:00,59.0,57.0,29.73,West,270,6.8,-999.0,93,-99.99,,,0.00,Acu-Link.com,2013-07-03 03:18:00,
2013-07-02 20:33:00,58.6,56.9,29.73,North,0,5.8,-999.0,94,-99.99,,,0.00,Acu-Link.com,2013-07-03 03:33:00,
2013-07-02 20:49:00,58.5,57.1,29.73,NNW,337,3.2,-999.0,95,-99.99,,,0.00,Acu-Link.com,2013-07-03 03:49:00,
2013-07-02 21:04:00,58.5,57.4,29.73,NNE,22,3.7,-999.0,96,-99.99,,,0.00,Acu-Link.com,2013-07-03 04:04:00,
2013-07-02 21:19:00,58.5,57.4,29.73,NNW,337,7.3,-999.0,96,-99.99,,,0.00,Acu-Link.com,2013-07-03 04:19:00,
2013-07-02 21:34:00,58.3,57.5,29.73,WNW,292,5.8,-999.0,97,-99.99,,,0.00,Acu-Link.com,2013-07-03 04:34:00,
2013-07-02 21:49:00,58.3,57.5,29.74,West,270,4.7,-999.0,97,-99.99,,,0.00,Acu-Link.com,2013-07-03 04:49:00,
2013-07-02 22:04:00,58.1,57.3,29.73,West,270,5.3,-999.0,97,-99.99,,,0.00,Acu-Link.com,2013-07-03 05:04:00,
2013-07-02 22:20:00,57.9,57.3,29.74,North,0,10.9,-999.0,98,-99.99,,,0.00,Acu-Link.com,2013-07-03 05:20:00,
2013-07-02 22:35:00,57.9,57.3,29.74,NNW,337,3.2,-999.0,98,-99.99,,,0.00,Acu-Link.com,2013-07-03 05:35:00,
2013-07-02 22:50:00,58.1,57.5,29.74,NW,315,6.8,-999.0,98,-99.99,,,0.00,Acu-Link.com,2013-07-03 05:50:00,
2013-07-02 23:05:00,58.1,57.5,29.75,WNW,292,2.7,-999.0,98,-99.99,,,0.00,Acu-Link.com,2013-07-03 06:05:00,
2013-07-02 23:20:00,58.1,57.5,29.75,ESE,112,2.2,-999.0,98,-99.99,,,0.00,Acu-Link.com,2013-07-03 06:20:00,
2013-07-02 23:35:00,58.1,57.5,29.75,West,270,3.7,-999.0,98,-99.99,,,0.00,Acu-Link.com,2013-07-03 06:35:00,
2013-07-02 23:50:00,58.1,57.5,29.75,West,270,4.2,-999.0,98,-99.99,,,0.00,Acu-Link.com,2013-07-03 06:50:00,